sensor_id;sensor_type;location;lat;lon;timestamp;P1;durP1;ratioP1;P2;durP2;ratioP2
12784;SDS011;6456;42.680;23.260;2023-04-06T00:02:13;6.27;;;5.23;;
12784;SDS011;6456;42.680;23.260;2023-04-06T00:04:43;6.90;;;5.70;;
12784;SDS011;6456;42.680;23.260;2023-04-06T00:07:13;5.77;;;5.23;;
12784;SDS011;6456;42.680;23.260;2023-04-06T00:09:43;7.10;;;5.40;;
12784;SDS011;6456;42.680;23.260;2023-04-06T00:12:15;6.33;;;5.43;;
12784;SDS011;6456;42.680;23.260;2023-04-06T00:14:42;6.43;;;5.50;;
12784;SDS011;6456;42.680;23.260;2023-04-06T00:17:11;6.73;;;5.57;;
12784;SDS011;6456;42.680;23.260;2023-04-06T00:19:40;5.80;;;5.23;;
12784;SDS011;6456;42.680;23.260;2023-04-06T00:22:10;5.67;;;5.07;;
12784;SDS011;6456;42.680;23.260;2023-04-06T00:24:37;6.27;;;5.67;;
12784;SDS011;6456;42.680;23.260;2023-04-06T00:27:04;7.07;;;5.37;;
12784;SDS011;6456;42.680;23.260;2023-04-06T00:29:35;7.37;;;5.43;;
12784;SDS011;6456;42.680;23.260;2023-04-06T00:32:05;6.93;;;6.00;;
12784;SDS011;6456;42.680;23.260;2023-04-06T00:34:33;6.80;;;5.60;;
12784;SDS011;6456;42.680;23.260;2023-04-06T00:37:00;6.23;;;5.60;;
12784;SDS011;6456;42.680;23.260;2023-04-06T00:39:27;6.73;;;5.80;;
12784;SDS011;6456;42.680;23.260;2023-04-06T00:41:54;6.73;;;5.23;;
12784;SDS011;6456;42.680;23.260;2023-04-06T00:44:22;6.60;;;5.23;;
12784;SDS011;6456;42.680;23.260;2023-04-06T00:46:51;5.57;;;5.03;;
12784;SDS011;6456;42.680;23.260;2023-04-06T00:49:18;5.53;;;4.73;;
12784;SDS011;6456;42.680;23.260;2023-04-06T00:51:47;5.40;;;4.83;;
12784;SDS011;6456;42.680;23.260;2023-04-06T00:54:14;5.40;;;4.90;;
12784;SDS011;6456;42.680;23.260;2023-04-06T00:56:41;5.90;;;5.30;;
12784;SDS011;6456;42.680;23.260;2023-04-06T00:59:09;5.83;;;5.00;;
12784;SDS011;6456;42.680;23.260;2023-04-06T01:01:36;6.03;;;5.43;;
12784;SDS011;6456;42.680;23.260;2023-04-06T01:04:03;5.57;;;5.03;;
12784;SDS011;6456;42.680;23.260;2023-04-06T01:06:30;7.27;;;5.67;;
12784;SDS011;6456;42.680;23.260;2023-04-06T01:08:59;5.97;;;5.37;;
12784;SDS011;6456;42.680;23.260;2023-04-06T01:11:26;6.17;;;5.20;;
12784;SDS011;6456;42.680;23.260;2023-04-06T01:13:53;6.40;;;5.60;;
12784;SDS011;6456;42.680;23.260;2023-04-06T01:16:20;6.03;;;5.10;;
12784;SDS011;6456;42.680;23.260;2023-04-06T01:18:46;6.37;;;5.50;;
12784;SDS011;6456;42.680;23.260;2023-04-06T01:21:13;6.20;;;5.57;;
12784;SDS011;6456;42.680;23.260;2023-04-06T01:23:43;5.97;;;5.37;;
12784;SDS011;6456;42.680;23.260;2023-04-06T01:26:11;5.77;;;5.07;;
12784;SDS011;6456;42.680;23.260;2023-04-06T01:28:38;6.90;;;5.10;;
12784;SDS011;6456;42.680;23.260;2023-04-06T01:31:07;6.03;;;5.30;;
12784;SDS011;6456;42.680;23.260;2023-04-06T01:33:35;5.83;;;5.23;;
12784;SDS011;6456;42.680;23.260;2023-04-06T01:36:02;5.93;;;5.33;;
12784;SDS011;6456;42.680;23.260;2023-04-06T01:38:30;5.90;;;5.27;;
12784;SDS011;6456;42.680;23.260;2023-04-06T01:40:58;7.23;;;5.33;;
12784;SDS011;6456;42.680;23.260;2023-04-06T01:43:25;5.63;;;5.13;;
12784;SDS011;6456;42.680;23.260;2023-04-06T01:45:52;5.40;;;4.90;;
12784;SDS011;6456;42.680;23.260;2023-04-06T01:48:19;5.30;;;4.80;;
12784;SDS011;6456;42.680;23.260;2023-04-06T01:50:46;6.93;;;5.07;;
12784;SDS011;6456;42.680;23.260;2023-04-06T01:53:13;7.23;;;5.23;;
12784;SDS011;6456;42.680;23.260;2023-04-06T01:55:40;6.00;;;5.40;;
12784;SDS011;6456;42.680;23.260;2023-04-06T01:58:09;5.00;;;4.50;;
12784;SDS011;6456;42.680;23.260;2023-04-06T02:00:36;5.33;;;4.80;;
12784;SDS011;6456;42.680;23.260;2023-04-06T02:03:03;6.43;;;5.00;;
12784;SDS011;6456;42.680;23.260;2023-04-06T02:05:30;5.23;;;4.63;;
12784;SDS011;6456;42.680;23.260;2023-04-06T02:08:02;5.00;;;4.50;;
12784;SDS011;6456;42.680;23.260;2023-04-06T02:10:30;6.07;;;4.80;;
12784;SDS011;6456;42.680;23.260;2023-04-06T02:12:57;4.93;;;4.47;;
12784;SDS011;6456;42.680;23.260;2023-04-06T02:15:25;5.13;;;4.63;;
12784;SDS011;6456;42.680;23.260;2023-04-06T02:17:52;5.20;;;4.70;;
12784;SDS011;6456;42.680;23.260;2023-04-06T02:20:19;5.97;;;5.37;;
12784;SDS011;6456;42.680;23.260;2023-04-06T02:22:46;5.10;;;4.60;;
12784;SDS011;6456;42.680;23.260;2023-04-06T02:25:13;5.33;;;4.77;;
12784;SDS011;6456;42.680;23.260;2023-04-06T02:27:40;5.00;;;4.50;;
12784;SDS011;6456;42.680;23.260;2023-04-06T02:30:08;5.23;;;4.50;;
12784;SDS011;6456;42.680;23.260;2023-04-06T02:32:36;4.77;;;4.37;;
12784;SDS011;6456;42.680;23.260;2023-04-06T02:35:04;5.57;;;5.00;;
12784;SDS011;6456;42.680;23.260;2023-04-06T02:37:31;5.20;;;4.47;;
12784;SDS011;6456;42.680;23.260;2023-04-06T02:39:58;5.07;;;4.57;;
12784;SDS011;6456;42.680;23.260;2023-04-06T02:42:25;5.20;;;4.70;;
12784;SDS011;6456;42.680;23.260;2023-04-06T02:44:52;5.47;;;4.90;;
12784;SDS011;6456;42.680;23.260;2023-04-06T02:47:19;5.00;;;4.50;;
12784;SDS011;6456;42.680;23.260;2023-04-06T02:49:48;5.80;;;4.73;;
12784;SDS011;6456;42.680;23.260;2023-04-06T02:52:15;4.60;;;4.07;;
12784;SDS011;6456;42.680;23.260;2023-04-06T02:54:43;5.60;;;4.97;;
12784;SDS011;6456;42.680;23.260;2023-04-06T02:57:10;6.20;;;5.10;;
12784;SDS011;6456;42.680;23.260;2023-04-06T02:59:37;5.53;;;4.80;;
12784;SDS011;6456;42.680;23.260;2023-04-06T03:02:04;4.93;;;4.43;;
12784;SDS011;6456;42.680;23.260;2023-04-06T03:04:31;5.87;;;4.90;;
12784;SDS011;6456;42.680;23.260;2023-04-06T03:06:59;5.00;;;4.50;;
12784;SDS011;6456;42.680;23.260;2023-04-06T03:09:26;8.93;;;5.40;;
12784;SDS011;6456;42.680;23.260;2023-04-06T03:11:53;6.67;;;5.20;;
12784;SDS011;6456;42.680;23.260;2023-04-06T03:14:21;5.70;;;5.10;;
12784;SDS011;6456;42.680;23.260;2023-04-06T03:16:47;6.33;;;5.37;;
12784;SDS011;6456;42.680;23.260;2023-04-06T03:19:15;7.50;;;5.43;;
12784;SDS011;6456;42.680;23.260;2023-04-06T03:21:42;5.67;;;4.63;;
12784;SDS011;6456;42.680;23.260;2023-04-06T03:24:10;5.23;;;4.73;;
12784;SDS011;6456;42.680;23.260;2023-04-06T03:26:38;6.53;;;5.20;;
12784;SDS011;6456;42.680;23.260;2023-04-06T03:29:05;5.90;;;5.13;;
12784;SDS011;6456;42.680;23.260;2023-04-06T03:31:31;5.80;;;4.97;;
12784;SDS011;6456;42.680;23.260;2023-04-06T03:33:58;5.13;;;4.63;;
12784;SDS011;6456;42.680;23.260;2023-04-06T03:36:26;5.60;;;4.77;;
12784;SDS011;6456;42.680;23.260;2023-04-06T03:38:53;5.37;;;4.67;;
12784;SDS011;6456;42.680;23.260;2023-04-06T03:41:21;6.53;;;4.83;;
12784;SDS011;6456;42.680;23.260;2023-04-06T03:43:48;5.47;;;4.30;;
12784;SDS011;6456;42.680;23.260;2023-04-06T03:46:16;4.90;;;4.40;;
12784;SDS011;6456;42.680;23.260;2023-04-06T03:48:45;5.20;;;4.33;;
12784;SDS011;6456;42.680;23.260;2023-04-06T03:51:14;5.07;;;4.57;;
12784;SDS011;6456;42.680;23.260;2023-04-06T03:53:41;4.33;;;3.90;;
12784;SDS011;6456;42.680;23.260;2023-04-06T03:56:08;5.50;;;4.17;;
12784;SDS011;6456;42.680;23.260;2023-04-06T03:58:36;5.17;;;4.23;;
12784;SDS011;6456;42.680;23.260;2023-04-06T04:01:03;4.70;;;4.20;;
12784;SDS011;6456;42.680;23.260;2023-04-06T04:03:30;5.07;;;4.53;;
12784;SDS011;6456;42.680;23.260;2023-04-06T04:05:57;13.70;;;10.70;;
12784;SDS011;6456;42.680;23.260;2023-04-06T04:08:24;5.70;;;5.10;;
12784;SDS011;6456;42.680;23.260;2023-04-06T04:10:51;10.17;;;7.57;;
12784;SDS011;6456;42.680;23.260;2023-04-06T04:13:18;6.40;;;5.20;;
12784;SDS011;6456;42.680;23.260;2023-04-06T04:15:47;6.37;;;4.80;;
12784;SDS011;6456;42.680;23.260;2023-04-06T04:18:14;6.03;;;4.80;;
12784;SDS011;6456;42.680;23.260;2023-04-06T04:20:41;5.00;;;4.50;;
12784;SDS011;6456;42.680;23.260;2023-04-06T04:23:08;5.00;;;4.50;;
12784;SDS011;6456;42.680;23.260;2023-04-06T04:25:35;5.63;;;4.57;;
12784;SDS011;6456;42.680;23.260;2023-04-06T04:28:01;6.57;;;4.53;;
12784;SDS011;6456;42.680;23.260;2023-04-06T04:30:28;5.03;;;4.50;;
12784;SDS011;6456;42.680;23.260;2023-04-06T04:32:57;5.67;;;5.03;;
12784;SDS011;6456;42.680;23.260;2023-04-06T04:35:24;6.00;;;5.07;;
12784;SDS011;6456;42.680;23.260;2023-04-06T04:37:51;6.43;;;4.90;;
12784;SDS011;6456;42.680;23.260;2023-04-06T04:40:18;5.57;;;4.60;;
12784;SDS011;6456;42.680;23.260;2023-04-06T04:42:44;5.70;;;5.00;;
12784;SDS011;6456;42.680;23.260;2023-04-06T04:45:11;5.40;;;4.90;;
12784;SDS011;6456;42.680;23.260;2023-04-06T04:47:38;5.40;;;4.83;;
12784;SDS011;6456;42.680;23.260;2023-04-06T04:50:07;7.77;;;5.23;;
12784;SDS011;6456;42.680;23.260;2023-04-06T04:52:36;6.07;;;5.10;;
12784;SDS011;6456;42.680;23.260;2023-04-06T04:55:26;6.07;;;5.47;;
12784;SDS011;6456;42.680;23.260;2023-04-06T04:57:54;6.37;;;5.17;;
12784;SDS011;6456;42.680;23.260;2023-04-06T05:00:21;7.80;;;5.10;;
12784;SDS011;6456;42.680;23.260;2023-04-06T05:02:48;6.30;;;5.33;;
12784;SDS011;6456;42.680;23.260;2023-04-06T05:05:15;6.37;;;5.57;;
12784;SDS011;6456;42.680;23.260;2023-04-06T05:07:42;6.70;;;5.37;;
12784;SDS011;6456;42.680;23.260;2023-04-06T05:10:09;8.40;;;5.73;;
12784;SDS011;6456;42.680;23.260;2023-04-06T05:12:38;6.27;;;5.67;;
12784;SDS011;6456;42.680;23.260;2023-04-06T05:15:05;6.87;;;5.67;;
12784;SDS011;6456;42.680;23.260;2023-04-06T05:17:33;8.10;;;5.87;;
12784;SDS011;6456;42.680;23.260;2023-04-06T05:20:00;8.57;;;6.43;;
12784;SDS011;6456;42.680;23.260;2023-04-06T05:22:27;7.57;;;6.30;;
12784;SDS011;6456;42.680;23.260;2023-04-06T05:24:54;6.87;;;6.13;;
12784;SDS011;6456;42.680;23.260;2023-04-06T05:27:21;7.23;;;6.20;;
12784;SDS011;6456;42.680;23.260;2023-04-06T05:29:49;8.73;;;6.70;;
12784;SDS011;6456;42.680;23.260;2023-04-06T05:32:16;7.27;;;6.40;;
12784;SDS011;6456;42.680;23.260;2023-04-06T05:34:47;9.57;;;6.77;;
12784;SDS011;6456;42.680;23.260;2023-04-06T05:37:14;7.93;;;6.60;;
12784;SDS011;6456;42.680;23.260;2023-04-06T05:39:41;8.47;;;6.80;;
12784;SDS011;6456;42.680;23.260;2023-04-06T05:42:08;7.20;;;6.37;;
12784;SDS011;6456;42.680;23.260;2023-04-06T05:44:36;7.77;;;6.13;;
12784;SDS011;6456;42.680;23.260;2023-04-06T05:47:05;7.83;;;6.00;;
12784;SDS011;6456;42.680;23.260;2023-04-06T05:49:32;6.87;;;6.13;;
12784;SDS011;6456;42.680;23.260;2023-04-06T05:51:59;6.43;;;5.80;;
12784;SDS011;6456;42.680;23.260;2023-04-06T05:54:26;8.70;;;6.37;;
12784;SDS011;6456;42.680;23.260;2023-04-06T05:56:53;10.03;;;6.20;;
12784;SDS011;6456;42.680;23.260;2023-04-06T05:59:20;15.90;;;6.50;;
12784;SDS011;6456;42.680;23.260;2023-04-06T06:01:47;12.60;;;7.53;;
12784;SDS011;6456;42.680;23.260;2023-04-06T06:04:15;9.17;;;7.33;;
12784;SDS011;6456;42.680;23.260;2023-04-06T06:06:42;11.80;;;7.40;;
12784;SDS011;6456;42.680;23.260;2023-04-06T06:09:09;7.63;;;6.57;;
12784;SDS011;6456;42.680;23.260;2023-04-06T06:11:36;8.00;;;7.10;;
12784;SDS011;6456;42.680;23.260;2023-04-06T06:14:03;8.77;;;6.97;;
12784;SDS011;6456;42.680;23.260;2023-04-06T06:16:30;6.90;;;6.13;;
12784;SDS011;6456;42.680;23.260;2023-04-06T06:18:57;8.50;;;7.00;;
12784;SDS011;6456;42.680;23.260;2023-04-06T06:21:25;9.87;;;7.63;;
12784;SDS011;6456;42.680;23.260;2023-04-06T06:23:52;8.13;;;6.87;;
12784;SDS011;6456;42.680;23.260;2023-04-06T06:26:19;7.63;;;6.60;;
12784;SDS011;6456;42.680;23.260;2023-04-06T06:28:46;9.20;;;6.93;;
12784;SDS011;6456;42.680;23.260;2023-04-06T06:31:13;7.83;;;7.03;;
12784;SDS011;6456;42.680;23.260;2023-04-06T06:33:41;7.70;;;6.90;;
12784;SDS011;6456;42.680;23.260;2023-04-06T06:36:08;8.10;;;6.97;;
12784;SDS011;6456;42.680;23.260;2023-04-06T06:38:36;7.60;;;6.47;;
12784;SDS011;6456;42.680;23.260;2023-04-06T06:41:03;12.17;;;7.77;;
12784;SDS011;6456;42.680;23.260;2023-04-06T06:43:30;8.57;;;6.50;;
12784;SDS011;6456;42.680;23.260;2023-04-06T06:45:57;8.07;;;6.17;;
12784;SDS011;6456;42.680;23.260;2023-04-06T06:48:24;8.20;;;6.40;;
12784;SDS011;6456;42.680;23.260;2023-04-06T06:50:51;7.67;;;6.70;;
12784;SDS011;6456;42.680;23.260;2023-04-06T06:53:18;8.53;;;6.23;;
12784;SDS011;6456;42.680;23.260;2023-04-06T06:55:47;9.93;;;6.73;;
12784;SDS011;6456;42.680;23.260;2023-04-06T06:58:15;8.90;;;6.97;;
12784;SDS011;6456;42.680;23.260;2023-04-06T07:00:44;8.27;;;7.00;;
12784;SDS011;6456;42.680;23.260;2023-04-06T07:03:11;8.87;;;7.07;;
12784;SDS011;6456;42.680;23.260;2023-04-06T07:05:38;10.37;;;6.73;;
12784;SDS011;6456;42.680;23.260;2023-04-06T07:08:04;7.47;;;6.13;;
12784;SDS011;6456;42.680;23.260;2023-04-06T07:10:31;9.57;;;6.37;;
12784;SDS011;6456;42.680;23.260;2023-04-06T07:13:00;6.40;;;5.47;;
12784;SDS011;6456;42.680;23.260;2023-04-06T07:15:26;9.27;;;6.73;;
12784;SDS011;6456;42.680;23.260;2023-04-06T07:17:53;6.90;;;6.20;;
12784;SDS011;6456;42.680;23.260;2023-04-06T07:20:20;10.70;;;6.43;;
12784;SDS011;6456;42.680;23.260;2023-04-06T07:22:47;7.93;;;6.53;;
12784;SDS011;6456;42.680;23.260;2023-04-06T07:25:14;7.80;;;6.37;;
12784;SDS011;6456;42.680;23.260;2023-04-06T07:27:41;8.80;;;6.20;;
12784;SDS011;6456;42.680;23.260;2023-04-06T07:30:10;8.00;;;6.50;;
12784;SDS011;6456;42.680;23.260;2023-04-06T07:32:37;7.70;;;6.27;;
12784;SDS011;6456;42.680;23.260;2023-04-06T07:35:04;7.57;;;6.33;;
12784;SDS011;6456;42.680;23.260;2023-04-06T07:37:31;8.87;;;6.90;;
12784;SDS011;6456;42.680;23.260;2023-04-06T07:39:58;7.60;;;5.97;;
12784;SDS011;6456;42.680;23.260;2023-04-06T07:42:25;7.83;;;6.10;;
12784;SDS011;6456;42.680;23.260;2023-04-06T07:44:52;9.30;;;7.73;;
12784;SDS011;6456;42.680;23.260;2023-04-06T07:47:20;8.93;;;7.27;;
12784;SDS011;6456;42.680;23.260;2023-04-06T07:49:47;9.27;;;7.63;;
12784;SDS011;6456;42.680;23.260;2023-04-06T07:52:14;10.80;;;7.80;;
12784;SDS011;6456;42.680;23.260;2023-04-06T07:54:41;9.17;;;7.30;;
12784;SDS011;6456;42.680;23.260;2023-04-06T07:57:07;10.83;;;7.83;;
12784;SDS011;6456;42.680;23.260;2023-04-06T07:59:34;8.87;;;7.77;;
12784;SDS011;6456;42.680;23.260;2023-04-06T08:02:01;8.33;;;7.03;;
12784;SDS011;6456;42.680;23.260;2023-04-06T08:04:30;8.43;;;7.17;;
12784;SDS011;6456;42.680;23.260;2023-04-06T08:06:56;8.50;;;7.60;;
12784;SDS011;6456;42.680;23.260;2023-04-06T08:09:23;9.53;;;7.60;;
12784;SDS011;6456;42.680;23.260;2023-04-06T08:11:50;9.57;;;8.07;;
12784;SDS011;6456;42.680;23.260;2023-04-06T08:14:17;9.77;;;7.13;;
12784;SDS011;6456;42.680;23.260;2023-04-06T08:16:45;8.50;;;7.60;;
12784;SDS011;6456;42.680;23.260;2023-04-06T08:19:12;9.50;;;7.40;;
12784;SDS011;6456;42.680;23.260;2023-04-06T08:21:43;9.63;;;7.07;;
12784;SDS011;6456;42.680;23.260;2023-04-06T08:24:11;9.10;;;7.80;;
12784;SDS011;6456;42.680;23.260;2023-04-06T08:26:38;7.13;;;6.43;;
12784;SDS011;6456;42.680;23.260;2023-04-06T08:29:04;5.93;;;5.43;;
12784;SDS011;6456;42.680;23.260;2023-04-06T08:31:33;7.13;;;6.27;;
12784;SDS011;6456;42.680;23.260;2023-04-06T08:34:00;8.40;;;6.83;;
12784;SDS011;6456;42.680;23.260;2023-04-06T08:36:27;8.60;;;6.50;;
12784;SDS011;6456;42.680;23.260;2023-04-06T08:38:55;7.20;;;6.40;;
12784;SDS011;6456;42.680;23.260;2023-04-06T08:41:22;6.23;;;5.63;;
12784;SDS011;6456;42.680;23.260;2023-04-06T08:43:49;6.93;;;5.80;;
12784;SDS011;6456;42.680;23.260;2023-04-06T08:46:22;6.43;;;5.83;;
12784;SDS011;6456;42.680;23.260;2023-04-06T08:48:54;6.70;;;5.90;;
12784;SDS011;6456;42.680;23.260;2023-04-06T08:51:22;7.83;;;6.03;;
12784;SDS011;6456;42.680;23.260;2023-04-06T08:53:50;8.80;;;6.70;;
12784;SDS011;6456;42.680;23.260;2023-04-06T08:56:21;8.40;;;6.80;;
12784;SDS011;6456;42.680;23.260;2023-04-06T08:58:48;9.50;;;7.10;;
12784;SDS011;6456;42.680;23.260;2023-04-06T09:01:17;7.90;;;6.73;;
12784;SDS011;6456;42.680;23.260;2023-04-06T09:03:46;7.53;;;6.20;;
12784;SDS011;6456;42.680;23.260;2023-04-06T09:06:15;6.63;;;5.97;;
12784;SDS011;6456;42.680;23.260;2023-04-06T09:08:42;6.63;;;5.93;;
12784;SDS011;6456;42.680;23.260;2023-04-06T09:11:10;9.03;;;6.80;;
12784;SDS011;6456;42.680;23.260;2023-04-06T09:13:48;7.97;;;7.10;;
12784;SDS011;6456;42.680;23.260;2023-04-06T09:16:16;7.70;;;6.77;;
12784;SDS011;6456;42.680;23.260;2023-04-06T09:18:43;8.13;;;7.33;;
12784;SDS011;6456;42.680;23.260;2023-04-06T09:21:11;9.10;;;6.73;;
12784;SDS011;6456;42.680;23.260;2023-04-06T09:23:38;8.77;;;6.70;;
12784;SDS011;6456;42.680;23.260;2023-04-06T09:26:06;7.73;;;6.60;;
12784;SDS011;6456;42.680;23.260;2023-04-06T09:28:41;6.30;;;5.70;;
12784;SDS011;6456;42.680;23.260;2023-04-06T09:31:14;6.77;;;5.90;;
12784;SDS011;6456;42.680;23.260;2023-04-06T09:33:43;7.00;;;6.30;;
12784;SDS011;6456;42.680;23.260;2023-04-06T09:36:11;10.30;;;6.50;;
12784;SDS011;6456;42.680;23.260;2023-04-06T09:38:50;7.73;;;6.93;;
12784;SDS011;6456;42.680;23.260;2023-04-06T09:41:23;12.77;;;7.23;;
12784;SDS011;6456;42.680;23.260;2023-04-06T09:43:50;7.17;;;6.17;;
12784;SDS011;6456;42.680;23.260;2023-04-06T09:46:20;6.53;;;5.83;;
12784;SDS011;6456;42.680;23.260;2023-04-06T09:48:49;6.47;;;5.70;;
12784;SDS011;6456;42.680;23.260;2023-04-06T09:51:16;7.93;;;6.03;;
12784;SDS011;6456;42.680;23.260;2023-04-06T09:53:45;7.60;;;6.80;;
12784;SDS011;6456;42.680;23.260;2023-04-06T09:56:19;8.30;;;6.37;;
12784;SDS011;6456;42.680;23.260;2023-04-06T09:58:50;8.33;;;5.97;;
12784;SDS011;6456;42.680;23.260;2023-04-06T10:01:23;7.27;;;6.10;;
12784;SDS011;6456;42.680;23.260;2023-04-06T10:03:55;6.83;;;5.90;;
12784;SDS011;6456;42.680;23.260;2023-04-06T10:06:34;6.17;;;5.57;;
12784;SDS011;6456;42.680;23.260;2023-04-06T10:09:02;8.33;;;6.10;;
12784;SDS011;6456;42.680;23.260;2023-04-06T10:11:33;7.03;;;5.83;;
12784;SDS011;6456;42.680;23.260;2023-04-06T10:14:00;6.83;;;6.10;;
12784;SDS011;6456;42.680;23.260;2023-04-06T10:16:29;7.93;;;6.53;;
12784;SDS011;6456;42.680;23.260;2023-04-06T10:18:58;6.77;;;6.07;;
12784;SDS011;6456;42.680;23.260;2023-04-06T10:21:31;7.17;;;6.47;;
12784;SDS011;6456;42.680;23.260;2023-04-06T10:24:02;6.90;;;6.17;;
12784;SDS011;6456;42.680;23.260;2023-04-06T10:26:35;7.17;;;6.30;;
12784;SDS011;6456;42.680;23.260;2023-04-06T10:29:03;6.30;;;5.70;;
12784;SDS011;6456;42.680;23.260;2023-04-06T10:31:31;6.93;;;6.23;;
12784;SDS011;6456;42.680;23.260;2023-04-06T10:33:59;6.80;;;6.10;;
12784;SDS011;6456;42.680;23.260;2023-04-06T10:36:27;8.73;;;7.10;;
12784;SDS011;6456;42.680;23.260;2023-04-06T10:38:58;8.70;;;6.33;;
12784;SDS011;6456;42.680;23.260;2023-04-06T10:41:31;7.27;;;6.50;;
12784;SDS011;6456;42.680;23.260;2023-04-06T10:43:59;6.80;;;6.07;;
12784;SDS011;6456;42.680;23.260;2023-04-06T10:46:28;7.47;;;6.77;;
12784;SDS011;6456;42.680;23.260;2023-04-06T10:48:57;10.20;;;6.63;;
12784;SDS011;6456;42.680;23.260;2023-04-06T10:51:25;6.83;;;6.13;;
12784;SDS011;6456;42.680;23.260;2023-04-06T10:53:54;7.30;;;6.43;;
12784;SDS011;6456;42.680;23.260;2023-04-06T10:56:21;8.40;;;7.20;;
12784;SDS011;6456;42.680;23.260;2023-04-06T10:58:53;7.03;;;6.33;;
12784;SDS011;6456;42.680;23.260;2023-04-06T11:01:21;6.90;;;6.20;;
12784;SDS011;6456;42.680;23.260;2023-04-06T11:03:50;8.00;;;6.33;;
12784;SDS011;6456;42.680;23.260;2023-04-06T11:06:20;9.03;;;6.27;;
12784;SDS011;6456;42.680;23.260;2023-04-06T11:08:48;7.37;;;6.37;;
12784;SDS011;6456;42.680;23.260;2023-04-06T11:11:16;8.00;;;6.23;;
12784;SDS011;6456;42.680;23.260;2023-04-06T11:13:45;6.60;;;5.90;;
12784;SDS011;6456;42.680;23.260;2023-04-06T11:16:15;7.50;;;6.50;;
12784;SDS011;6456;42.680;23.260;2023-04-06T11:18:47;7.97;;;6.90;;
12784;SDS011;6456;42.680;23.260;2023-04-06T11:21:17;7.40;;;6.23;;
12784;SDS011;6456;42.680;23.260;2023-04-06T11:23:46;6.77;;;6.03;;
12784;SDS011;6456;42.680;23.260;2023-04-06T11:26:13;6.13;;;5.53;;
12784;SDS011;6456;42.680;23.260;2023-04-06T11:28:40;6.40;;;5.73;;
12784;SDS011;6456;42.680;23.260;2023-04-06T11:31:08;6.83;;;5.77;;
12784;SDS011;6456;42.680;23.260;2023-04-06T11:33:37;7.87;;;6.00;;
12784;SDS011;6456;42.680;23.260;2023-04-06T11:36:05;5.97;;;5.47;;
12784;SDS011;6456;42.680;23.260;2023-04-06T11:38:38;9.07;;;6.37;;
12784;SDS011;6456;42.680;23.260;2023-04-06T11:41:06;7.53;;;6.00;;
12784;SDS011;6456;42.680;23.260;2023-04-06T11:43:33;5.67;;;5.17;;
12784;SDS011;6456;42.680;23.260;2023-04-06T11:46:01;6.00;;;5.40;;
12784;SDS011;6456;42.680;23.260;2023-04-06T11:48:28;7.23;;;6.00;;
12784;SDS011;6456;42.680;23.260;2023-04-06T11:50:56;7.47;;;5.77;;
12784;SDS011;6456;42.680;23.260;2023-04-06T11:53:25;7.27;;;6.23;;
12784;SDS011;6456;42.680;23.260;2023-04-06T11:55:52;6.63;;;6.00;;
12784;SDS011;6456;42.680;23.260;2023-04-06T11:58:24;7.63;;;6.07;;
12784;SDS011;6456;42.680;23.260;2023-04-06T12:00:51;5.07;;;4.67;;
12784;SDS011;6456;42.680;23.260;2023-04-06T12:03:18;5.83;;;5.23;;
12784;SDS011;6456;42.680;23.260;2023-04-06T12:05:45;6.23;;;5.47;;
12784;SDS011;6456;42.680;23.260;2023-04-06T12:08:12;6.80;;;5.07;;
12784;SDS011;6456;42.680;23.260;2023-04-06T12:10:39;6.17;;;5.57;;
12784;SDS011;6456;42.680;23.260;2023-04-06T12:13:09;6.47;;;5.87;;
12784;SDS011;6456;42.680;23.260;2023-04-06T12:15:37;6.87;;;6.17;;
12784;SDS011;6456;42.680;23.260;2023-04-06T12:18:07;7.07;;;6.23;;
12784;SDS011;6456;42.680;23.260;2023-04-06T12:20:34;6.83;;;5.87;;
12784;SDS011;6456;42.680;23.260;2023-04-06T12:23:01;6.73;;;5.10;;
12784;SDS011;6456;42.680;23.260;2023-04-06T12:25:28;6.77;;;5.43;;
12784;SDS011;6456;42.680;23.260;2023-04-06T12:27:58;8.27;;;5.83;;
12784;SDS011;6456;42.680;23.260;2023-04-06T12:30:26;7.30;;;5.67;;
12784;SDS011;6456;42.680;23.260;2023-04-06T12:33:00;7.37;;;5.53;;
12784;SDS011;6456;42.680;23.260;2023-04-06T12:35:33;6.20;;;5.60;;
12784;SDS011;6456;42.680;23.260;2023-04-06T12:38:00;6.17;;;5.23;;
12784;SDS011;6456;42.680;23.260;2023-04-06T12:40:27;5.60;;;5.10;;
12784;SDS011;6456;42.680;23.260;2023-04-06T12:42:54;5.90;;;5.30;;
12784;SDS011;6456;42.680;23.260;2023-04-06T12:45:26;6.00;;;5.03;;
12784;SDS011;6456;42.680;23.260;2023-04-06T12:47:57;6.27;;;5.67;;
12784;SDS011;6456;42.680;23.260;2023-04-06T12:50:29;5.50;;;5.00;;
12784;SDS011;6456;42.680;23.260;2023-04-06T12:52:56;7.13;;;5.67;;
12784;SDS011;6456;42.680;23.260;2023-04-06T12:55:23;5.87;;;4.93;;
12784;SDS011;6456;42.680;23.260;2023-04-06T12:57:50;5.90;;;4.80;;
12784;SDS011;6456;42.680;23.260;2023-04-06T13:00:17;5.90;;;5.20;;
12784;SDS011;6456;42.680;23.260;2023-04-06T13:02:45;5.83;;;4.70;;
12784;SDS011;6456;42.680;23.260;2023-04-06T13:05:17;5.37;;;4.67;;
12784;SDS011;6456;42.680;23.260;2023-04-06T13:07:44;5.77;;;4.70;;
12784;SDS011;6456;42.680;23.260;2023-04-06T13:10:12;6.77;;;5.40;;
12784;SDS011;6456;42.680;23.260;2023-04-06T13:12:39;6.07;;;5.47;;
12784;SDS011;6456;42.680;23.260;2023-04-06T13:15:06;7.50;;;5.53;;
12784;SDS011;6456;42.680;23.260;2023-04-06T13:17:34;10.00;;;5.83;;
12784;SDS011;6456;42.680;23.260;2023-04-06T13:20:01;8.33;;;4.97;;
12784;SDS011;6456;42.680;23.260;2023-04-06T13:22:30;8.13;;;5.20;;
12784;SDS011;6456;42.680;23.260;2023-04-06T13:24:57;6.03;;;5.43;;
12784;SDS011;6456;42.680;23.260;2023-04-06T13:27:24;6.20;;;5.10;;
12784;SDS011;6456;42.680;23.260;2023-04-06T13:29:52;6.40;;;5.73;;
12784;SDS011;6456;42.680;23.260;2023-04-06T13:32:20;8.30;;;5.40;;
12784;SDS011;6456;42.680;23.260;2023-04-06T13:34:46;6.60;;;5.90;;
12784;SDS011;6456;42.680;23.260;2023-04-06T13:37:14;5.63;;;5.10;;
12784;SDS011;6456;42.680;23.260;2023-04-06T13:39:43;5.83;;;5.23;;
12784;SDS011;6456;42.680;23.260;2023-04-06T13:42:13;6.07;;;5.40;;
12784;SDS011;6456;42.680;23.260;2023-04-06T13:44:40;5.43;;;5.00;;
12784;SDS011;6456;42.680;23.260;2023-04-06T13:47:06;7.33;;;5.50;;
12784;SDS011;6456;42.680;23.260;2023-04-06T13:49:33;5.63;;;5.10;;
12784;SDS011;6456;42.680;23.260;2023-04-06T13:52:01;5.50;;;5.00;;
12784;SDS011;6456;42.680;23.260;2023-04-06T13:54:27;6.97;;;5.83;;
12784;SDS011;6456;42.680;23.260;2023-04-06T13:56:56;5.83;;;5.20;;
12784;SDS011;6456;42.680;23.260;2023-04-06T13:59:22;6.57;;;5.90;;
12784;SDS011;6456;42.680;23.260;2023-04-06T14:01:49;5.70;;;5.20;;
12784;SDS011;6456;42.680;23.260;2023-04-06T14:04:16;7.10;;;6.27;;
12784;SDS011;6456;42.680;23.260;2023-04-06T14:06:44;7.13;;;5.77;;
12784;SDS011;6456;42.680;23.260;2023-04-06T14:09:11;7.23;;;5.40;;
12784;SDS011;6456;42.680;23.260;2023-04-06T14:11:38;5.90;;;5.30;;
12784;SDS011;6456;42.680;23.260;2023-04-06T14:14:06;6.03;;;5.40;;
12784;SDS011;6456;42.680;23.260;2023-04-06T14:16:33;6.03;;;5.43;;
12784;SDS011;6456;42.680;23.260;2023-04-06T14:19:00;5.33;;;4.83;;
12784;SDS011;6456;42.680;23.260;2023-04-06T14:21:27;5.90;;;5.30;;
12784;SDS011;6456;42.680;23.260;2023-04-06T14:23:54;8.27;;;5.17;;
12784;SDS011;6456;42.680;23.260;2023-04-06T14:26:21;7.57;;;5.53;;
12784;SDS011;6456;42.680;23.260;2023-04-06T14:28:49;6.17;;;5.40;;
12784;SDS011;6456;42.680;23.260;2023-04-06T14:31:18;5.60;;;5.10;;
12784;SDS011;6456;42.680;23.260;2023-04-06T14:33:45;6.50;;;5.90;;
12784;SDS011;6456;42.680;23.260;2023-04-06T14:36:11;10.43;;;6.57;;
12784;SDS011;6456;42.680;23.260;2023-04-06T14:38:38;6.83;;;5.30;;
12784;SDS011;6456;42.680;23.260;2023-04-06T14:41:06;6.03;;;5.43;;
12784;SDS011;6456;42.680;23.260;2023-04-06T14:43:34;6.73;;;5.47;;
12784;SDS011;6456;42.680;23.260;2023-04-06T14:46:01;7.17;;;5.40;;
12784;SDS011;6456;42.680;23.260;2023-04-06T14:48:29;9.43;;;6.30;;
12784;SDS011;6456;42.680;23.260;2023-04-06T14:50:56;7.43;;;5.50;;
12784;SDS011;6456;42.680;23.260;2023-04-06T14:53:24;8.50;;;5.77;;